createdAt,value
2023-08-02T00:00:52.819Z,84.10
2023-08-02T00:01:52.898Z,84.30
2023-08-02T00:02:52.838Z,84.30
2023-08-02T00:04:09.138Z,84.20
2023-08-02T00:04:54.875Z,84.41
2023-08-02T00:05:52.875Z,84.85
2023-08-02T00:06:52.867Z,84.81
2023-08-02T00:07:53.836Z,84.75
2023-08-02T00:08:52.762Z,84.91
2023-08-02T00:09:52.731Z,84.91
2023-08-02T00:10:52.753Z,85.36
2023-08-02T00:11:52.729Z,85.15
2023-08-02T00:12:52.772Z,85.46
2023-08-02T00:13:52.776Z,85.25
2023-08-02T00:14:52.674Z,85.96
2023-08-02T00:15:52.684Z,86.07
2023-08-02T00:16:52.723Z,85.76
2023-08-02T00:17:52.718Z,86.07
2023-08-02T00:18:52.655Z,86.31
2023-08-02T00:19:52.632Z,86.21
2023-08-02T00:20:52.633Z,86.31
2023-08-02T00:21:52.614Z,86.41
2023-08-02T00:22:52.618Z,86.77
2023-08-02T00:23:52.605Z,87.02
2023-08-02T00:24:52.589Z,87.32
2023-08-02T00:25:52.589Z,87.22
2023-08-02T00:26:52.579Z,87.02
2023-08-02T00:27:52.575Z,86.61
2023-08-02T00:28:52.557Z,86.88
2023-08-02T00:29:52.544Z,87.63
2023-08-02T00:30:52.556Z,88.03
2023-08-02T00:31:52.526Z,87.02
2023-08-02T00:32:52.528Z,87.52
2023-08-02T00:33:52.484Z,87.46
2023-08-02T00:34:52.477Z,87.43
2023-08-02T00:35:52.510Z,87.43
2023-08-02T00:36:52.496Z,87.28
2023-08-02T00:37:52.475Z,87.93
2023-08-02T00:38:52.437Z,88.03
2023-08-02T00:39:52.436Z,87.73
2023-08-02T00:40:52.448Z,88.34
2023-08-02T00:41:52.409Z,88.44
2023-08-02T00:42:52.393Z,88.64
2023-08-02T00:43:52.390Z,88.78
2023-08-02T00:44:52.377Z,88.68
2023-08-02T00:45:52.438Z,88.54
2023-08-02T00:46:52.496Z,88.95
2023-08-02T00:47:52.383Z,89.04
2023-08-02T00:48:53.338Z,88.95
2023-08-02T00:49:52.352Z,89.35
2023-08-02T00:50:52.329Z,88.78
2023-08-02T00:51:52.311Z,88.78
2023-08-02T00:52:52.287Z,89.04
2023-08-02T00:53:52.284Z,89.25
2023-08-02T00:54:52.302Z,88.75
2023-08-02T00:55:52.261Z,88.54
2023-08-02T00:56:52.246Z,89.35
2023-08-02T00:57:52.234Z,88.95
2023-08-02T00:58:52.232Z,88.75
2023-08-02T00:59:52.237Z,89.25
2023-08-02T01:00:52.204Z,89.04
2023-08-02T01:01:52.246Z,88.95
2023-08-02T01:02:52.247Z,89.25
2023-08-02T01:03:52.173Z,88.54
2023-08-02T01:04:52.188Z,89.25
2023-08-02T01:05:52.185Z,88.64
2023-08-02T01:06:52.212Z,89.35
2023-08-02T01:07:52.144Z,89.65
2023-08-02T01:08:52.206Z,89.80
2023-08-02T01:09:52.149Z,89.86
2023-08-02T01:10:52.112Z,89.35
2023-08-02T01:11:52.104Z,89.45
2023-08-02T01:12:52.081Z,89.55
2023-08-02T01:13:52.092Z,89.45
2023-08-02T01:14:55.954Z,89.45
2023-08-02T01:15:53.105Z,89.76
2023-08-02T01:16:52.073Z,89.86
2023-08-02T01:17:52.143Z,90.06
2023-08-02T01:18:52.050Z,89.65
2023-08-02T01:19:52.022Z,89.86
2023-08-02T01:20:52.004Z,89.86
2023-08-02T01:21:51.993Z,89.86
2023-08-02T01:22:52.017Z,89.61
2023-08-02T01:23:52.007Z,89.65
2023-08-02T01:24:51.956Z,89.45
2023-08-02T01:25:51.959Z,89.55
2023-08-02T01:26:51.963Z,89.45
2023-08-02T01:27:51.999Z,89.76
2023-08-02T01:28:51.915Z,89.41
2023-08-02T01:29:51.918Z,90.02
2023-08-02T01:30:51.906Z,89.51
2023-08-02T01:31:51.918Z,89.41
2023-08-02T01:32:51.981Z,89.81
2023-08-02T01:33:51.862Z,90.22
2023-08-02T01:34:51.861Z,90.16
2023-08-02T01:35:51.843Z,90.32
2023-08-02T01:36:51.892Z,90.42
2023-08-02T01:37:51.867Z,90.57
2023-08-02T01:38:51.815Z,90.16
2023-08-02T01:39:51.815Z,90.47
2023-08-02T01:40:51.805Z,90.12
2023-08-02T01:41:51.832Z,90.16
2023-08-02T01:42:51.796Z,90.12
2023-08-02T01:43:51.772Z,89.92
2023-08-02T01:44:51.754Z,90.06
2023-08-02T01:45:51.790Z,90.06
2023-08-02T01:46:51.764Z,90.42
2023-08-02T01:47:51.743Z,90.73
2023-08-02T01:48:51.723Z,90.67
2023-08-02T01:49:51.711Z,91.08
2023-08-02T01:50:51.742Z,91.08
2023-08-02T01:51:51.736Z,90.88
2023-08-02T01:52:51.685Z,91.17
2023-08-02T01:53:51.679Z,90.93
2023-08-02T01:54:51.654Z,91.44
2023-08-02T01:55:51.683Z,91.28
2023-08-02T01:56:51.654Z,90.93
2023-08-02T01:57:51.621Z,91.08
2023-08-02T01:58:51.619Z,91.17
2023-08-02T01:59:51.609Z,91.28
2023-08-02T02:00:51.644Z,91.54
2023-08-02T02:01:51.595Z,91.08
2023-08-02T02:02:51.673Z,90.93
2023-08-02T02:03:51.560Z,90.62
2023-08-02T02:04:51.581Z,91.34
2023-08-02T02:05:51.570Z,91.34
2023-08-02T02:06:51.544Z,91.08
2023-08-02T02:07:51.516Z,91.13
2023-08-02T02:08:51.510Z,91.17
2023-08-02T02:09:51.526Z,91.44
2023-08-02T02:10:51.498Z,91.54
2023-08-02T02:11:51.480Z,91.24
2023-08-02T02:12:51.482Z,91.34
2023-08-02T02:13:51.459Z,91.54
2023-08-02T02:14:51.475Z,91.03
2023-08-02T02:15:51.537Z,91.34
2023-08-02T02:16:51.445Z,91.30
2023-08-02T02:17:51.447Z,91.09
2023-08-02T02:18:51.434Z,90.93
2023-08-02T02:19:51.438Z,91.34
2023-08-02T02:20:51.390Z,91.44
2023-08-02T02:21:51.398Z,91.74
2023-08-02T02:22:51.371Z,91.34
2023-08-02T02:23:51.412Z,91.13
2023-08-02T02:24:51.350Z,91.74
2023-08-02T02:25:51.355Z,92.35
2023-08-02T02:26:51.334Z,92.76
2023-08-02T02:27:51.343Z,93.00
2023-08-02T02:28:51.342Z,92.86
2023-08-02T02:29:51.292Z,93.00
2023-08-02T02:30:51.290Z,93.26
2023-08-02T02:31:51.301Z,93.37
2023-08-02T02:32:51.322Z,93.57
2023-08-02T02:33:51.260Z,93.30
2023-08-02T02:34:51.263Z,93.26
2023-08-02T02:35:51.254Z,93.51
2023-08-02T02:36:52.243Z,93.81
2023-08-02T02:37:51.236Z,94.02
2023-08-02T02:38:51.206Z,94.22
2023-08-02T02:39:51.200Z,94.26
2023-08-02T02:40:51.196Z,94.12
2023-08-02T02:41:51.199Z,94.42
2023-08-02T02:42:51.184Z,94.98
2023-08-02T02:43:51.157Z,95.18
2023-08-02T02:44:51.182Z,95.07
2023-08-02T02:45:51.140Z,95.07
2023-08-02T02:46:51.195Z,94.98
2023-08-02T02:47:51.149Z,95.18
2023-08-02T02:48:51.124Z,95.54
2023-08-02T02:49:51.100Z,95.58
2023-08-02T02:50:51.105Z,95.38
2023-08-02T02:51:51.098Z,95.38
2023-08-02T02:52:51.064Z,95.38
2023-08-02T02:53:51.057Z,95.18
2023-08-02T02:54:51.052Z,95.48
2023-08-02T02:55:51.053Z,95.68
2023-08-02T02:56:51.054Z,95.79
2023-08-02T02:57:51.017Z,95.48
2023-08-02T02:58:51.005Z,95.79
2023-08-02T02:59:50.998Z,95.68
2023-08-02T03:00:51.040Z,95.99
2023-08-02T03:01:51.020Z,95.58
2023-08-02T03:02:51.061Z,95.79
2023-08-02T03:03:50.962Z,96.30
2023-08-02T03:04:50.944Z,95.58
2023-08-02T03:05:50.960Z,95.58
2023-08-02T03:06:50.989Z,95.68
2023-08-02T03:07:50.915Z,95.79
2023-08-02T03:08:50.906Z,95.99
2023-08-02T03:09:50.949Z,95.79
2023-08-02T03:10:50.906Z,96.15
2023-08-02T03:11:50.888Z,96.19
2023-08-02T03:12:50.879Z,96.19
2023-08-02T03:13:50.857Z,95.99
2023-08-02T03:14:50.870Z,95.99
2023-08-02T03:15:50.849Z,95.89
2023-08-02T03:16:50.873Z,95.68
2023-08-02T03:17:50.856Z,96.19
2023-08-02T03:18:50.807Z,95.58
2023-08-02T03:19:50.830Z,95.58
2023-08-02T03:20:50.791Z,95.58
2023-08-02T03:21:50.797Z,95.79
2023-08-02T03:22:50.786Z,96.39
2023-08-02T03:23:50.778Z,96.50
2023-08-02T03:24:50.777Z,95.99
2023-08-02T03:25:50.741Z,96.19
2023-08-02T03:26:50.740Z,95.99
2023-08-02T03:27:50.731Z,96.60
2023-08-02T03:28:50.732Z,96.30
2023-08-02T03:29:50.705Z,96.39
2023-08-02T03:30:50.722Z,96.30
2023-08-02T03:31:50.680Z,96.09
2023-08-02T03:32:50.707Z,96.09
2023-08-02T03:33:50.677Z,95.99
2023-08-02T03:34:50.658Z,95.68
2023-08-02T03:35:50.650Z,95.68
2023-08-02T03:36:50.647Z,96.09
2023-08-02T03:37:50.655Z,96.39
2023-08-02T03:38:50.653Z,95.99
2023-08-02T03:39:50.606Z,96.30
2023-08-02T03:40:50.600Z,96.30
2023-08-02T03:41:51.577Z,95.58
2023-08-02T03:42:50.606Z,95.79
2023-08-02T03:43:50.555Z,95.79
2023-08-02T03:44:50.553Z,95.54
2023-08-02T03:45:50.578Z,95.64
2023-08-02T03:46:50.580Z,95.48
2023-08-02T03:47:50.621Z,95.34
2023-08-02T03:48:50.529Z,94.93
2023-08-02T03:49:50.511Z,95.13
2023-08-02T03:50:50.498Z,95.38
2023-08-02T03:51:50.505Z,95.34
2023-08-02T03:52:50.500Z,95.23
2023-08-02T03:53:50.457Z,94.32
2023-08-02T03:54:50.456Z,95.23
2023-08-02T03:55:50.474Z,95.03
2023-08-02T03:56:50.522Z,94.42
2023-08-02T03:57:50.447Z,94.53
2023-08-02T03:58:50.419Z,94.22
2023-08-02T03:59:50.403Z,94.22
2023-08-02T04:00:50.419Z,94.02
2023-08-02T04:01:50.428Z,94.22
2023-08-02T04:02:50.426Z,94.22
2023-08-02T04:03:50.397Z,94.02
2023-08-02T04:04:50.364Z,94.42
2023-08-02T04:05:50.436Z,94.67
2023-08-02T04:06:50.409Z,95.34
2023-08-02T04:07:50.326Z,95.23
2023-08-02T04:08:50.312Z,95.03
2023-08-02T04:09:50.294Z,95.13
2023-08-02T04:10:50.310Z,94.62
2023-08-02T04:11:50.277Z,94.42
2023-08-02T04:12:50.271Z,94.22
2023-08-02T04:13:50.265Z,94.22
2023-08-02T04:14:50.252Z,93.51
2023-08-02T04:15:50.275Z,93.71
2023-08-02T04:16:50.286Z,94.12
2023-08-02T04:17:50.354Z,94.22
2023-08-02T04:18:50.228Z,93.77
2023-08-02T04:19:50.218Z,94.07
2023-08-02T04:20:50.209Z,93.97
2023-08-02T04:21:50.197Z,93.46
2023-08-02T04:22:50.168Z,93.62
2023-08-02T04:23:50.168Z,93.52
2023-08-02T04:24:50.195Z,93.93
2023-08-02T04:25:50.160Z,93.73
2023-08-02T04:26:50.138Z,93.93
2023-08-02T04:27:50.148Z,94.07
2023-08-02T04:28:50.108Z,94.13
2023-08-02T04:29:50.128Z,94.38
2023-08-02T04:30:50.090Z,94.98
2023-08-02T04:31:50.154Z,95.29
2023-08-02T04:32:50.120Z,95.59
2023-08-02T04:33:50.052Z,95.39
2023-08-02T04:34:50.070Z,95.29
2023-08-02T04:35:50.037Z,95.19
2023-08-02T04:36:50.058Z,95.09
2023-08-02T04:37:50.021Z,94.98
2023-08-02T04:38:50.021Z,95.39
2023-08-02T04:39:50.027Z,95.29
2023-08-02T04:40:50.014Z,95.50
2023-08-02T04:41:49.983Z,95.25
2023-08-02T04:42:49.983Z,95.29
2023-08-02T04:43:49.980Z,95.29
2023-08-02T04:44:49.946Z,95.29
2023-08-02T04:45:49.970Z,95.25
2023-08-02T04:46:49.942Z,95.35
2023-08-02T04:47:49.985Z,95.29
2023-08-02T04:48:49.951Z,94.84
2023-08-02T04:49:49.908Z,95.04
2023-08-02T04:50:49.895Z,95.04
2023-08-02T04:51:49.880Z,95.45
2023-08-02T04:52:49.880Z,94.94
2023-08-02T04:53:49.897Z,95.25
2023-08-02T04:54:49.848Z,95.55
2023-08-02T04:55:49.839Z,95.25
2023-08-02T04:56:49.835Z,94.94
2023-08-02T04:57:49.839Z,95.25
2023-08-02T04:58:49.814Z,94.74
2023-08-02T04:59:49.840Z,94.03
2023-08-02T05:00:49.799Z,94.13
2023-08-02T05:01:49.860Z,94.29
2023-08-02T05:02:49.872Z,94.09
2023-08-02T05:03:49.786Z,93.88
2023-08-02T05:04:49.757Z,94.09
2023-08-02T05:05:49.747Z,94.09
2023-08-02T05:06:49.743Z,93.48
2023-08-02T05:07:49.783Z,93.48
2023-08-02T05:08:49.707Z,93.48
2023-08-02T05:09:49.716Z,93.18
2023-08-02T05:10:49.680Z,93.27
2023-08-02T05:11:49.705Z,92.83
2023-08-02T05:12:49.673Z,92.87
2023-08-02T05:13:49.651Z,92.83
2023-08-02T05:14:49.649Z,92.77
2023-08-02T05:16:21.580Z,92.72
2023-08-02T05:16:49.644Z,92.83
2023-08-02T05:17:49.746Z,92.16
2023-08-02T05:18:49.596Z,91.92
2023-08-02T05:19:49.595Z,91.31
2023-08-02T05:20:49.605Z,91.00
2023-08-02T05:21:49.604Z,90.76
2023-08-02T05:22:49.624Z,90.66
2023-08-02T05:23:50.672Z,90.86
2023-08-02T05:24:49.599Z,91.37
2023-08-02T05:25:49.576Z,90.96
2023-08-02T05:26:49.532Z,90.05
2023-08-02T05:27:49.520Z,90.16
2023-08-02T05:28:49.511Z,90.05
2023-08-02T05:29:49.500Z,90.36
2023-08-02T05:30:49.524Z,89.95
2023-08-02T05:31:49.514Z,89.70
2023-08-02T05:32:49.550Z,90.11
2023-08-02T05:33:49.462Z,89.95
2023-08-02T05:34:49.478Z,89.75
2023-08-02T05:35:49.467Z,90.96
2023-08-02T05:36:49.430Z,90.96
2023-08-02T05:37:49.432Z,90.52
2023-08-02T05:38:49.408Z,90.16
2023-08-02T05:39:49.427Z,89.61
2023-08-02T05:40:49.387Z,89.81
2023-08-02T05:41:49.379Z,90.31
2023-08-02T05:42:49.372Z,90.21
2023-08-02T05:43:49.372Z,89.81
2023-08-02T05:44:49.381Z,90.01
2023-08-02T05:45:49.355Z,89.36
2023-08-02T05:46:49.322Z,89.36
2023-08-02T05:47:49.383Z,89.46
2023-08-02T05:48:49.328Z,89.16
2023-08-02T05:49:49.336Z,88.96
2023-08-02T05:50:49.284Z,88.75
2023-08-02T05:51:49.281Z,88.75
2023-08-02T05:52:49.286Z,88.96
2023-08-02T05:53:49.282Z,88.45
2023-08-02T05:54:49.250Z,88.71
2023-08-02T05:55:49.240Z,88.51
2023-08-02T05:56:49.225Z,88.31
2023-08-02T05:57:49.239Z,88.61
2023-08-02T05:58:49.220Z,88.31
2023-08-02T05:59:49.201Z,88.71
2023-08-02T06:00:50.873Z,88.71
2023-08-02T06:01:49.260Z,88.71
2023-08-02T06:02:49.257Z,87.81
2023-08-02T06:03:49.244Z,88.01
2023-08-02T06:04:49.190Z,88.41
2023-08-02T06:05:49.142Z,88.01
2023-08-02T06:06:49.191Z,88.57
2023-08-02T06:07:49.140Z,88.10
2023-08-02T06:08:49.108Z,87.56
2023-08-02T06:09:49.116Z,87.96
2023-08-02T06:10:49.092Z,87.50
2023-08-02T06:11:49.084Z,87.66
2023-08-02T06:12:49.082Z,87.86
2023-08-02T06:13:49.064Z,87.46
2023-08-02T06:14:49.045Z,87.46
2023-08-02T06:15:49.064Z,87.46
2023-08-02T06:16:49.045Z,87.46
2023-08-02T06:17:49.088Z,87.76
2023-08-02T06:18:49.010Z,87.46
2023-08-02T06:19:48.992Z,87.15
2023-08-02T06:20:48.994Z,87.26
2023-08-02T06:21:48.996Z,87.30
2023-08-02T06:22:48.977Z,86.95
2023-08-02T06:23:49.018Z,87.46
2023-08-02T06:24:48.946Z,87.56
2023-08-02T06:25:48.941Z,87.26
2023-08-02T06:26:48.933Z,87.36
2023-08-02T06:27:48.923Z,87.56
2023-08-02T06:28:48.915Z,87.26
2023-08-02T06:29:48.892Z,87.01
2023-08-02T06:30:48.934Z,87.12
2023-08-02T06:31:48.905Z,86.41
2023-08-02T06:32:48.870Z,86.81
2023-08-02T06:33:48.873Z,86.41
2023-08-02T06:34:48.849Z,86.47
2023-08-02T06:35:48.861Z,85.46
2023-08-02T06:36:48.859Z,85.66
2023-08-02T06:37:48.815Z,85.52
2023-08-02T06:38:48.824Z,84.91
2023-08-02T06:39:48.796Z,85.22
2023-08-02T06:40:48.804Z,84.47
2023-08-02T06:41:48.777Z,84.31
2023-08-02T06:42:48.770Z,84.37
2023-08-02T06:43:48.744Z,83.87
2023-08-02T06:44:48.805Z,83.97
2023-08-02T06:45:48.784Z,83.56
2023-08-02T06:46:48.795Z,83.56
2023-08-02T06:47:48.761Z,83.66
2023-08-02T06:48:48.702Z,83.83
2023-08-02T06:49:48.713Z,82.96
2023-08-02T06:50:48.689Z,82.05
2023-08-02T06:51:48.674Z,82.51
2023-08-02T06:52:48.658Z,82.51
2023-08-02T06:53:48.672Z,82.56
2023-08-02T06:54:48.684Z,82.45
2023-08-02T06:55:48.631Z,82.76
2023-08-02T06:56:48.621Z,82.82
2023-08-02T06:57:48.631Z,82.25
2023-08-02T06:58:48.620Z,82.42
2023-08-02T06:59:48.631Z,81.61
2023-08-02T07:00:48.599Z,81.51
2023-08-02T07:01:48.584Z,81.41
2023-08-02T07:02:49.156Z,81.21
2023-08-02T07:03:48.579Z,81.91
2023-08-02T07:04:48.610Z,81.41
2023-08-02T07:05:48.548Z,81.55
2023-08-02T07:06:48.531Z,81.41
2023-08-02T07:07:48.548Z,81.21
2023-08-02T07:08:48.560Z,81.35
2023-08-02T07:09:48.485Z,81.91
2023-08-02T07:10:48.485Z,81.61
2023-08-02T07:11:48.831Z,81.21
2023-08-02T07:12:48.480Z,81.91
2023-08-02T07:13:48.447Z,81.15
2023-08-02T07:14:48.444Z,81.04
2023-08-02T07:15:48.424Z,81.95
2023-08-02T07:16:48.479Z,81.85
2023-08-02T07:17:48.740Z,81.85
2023-08-02T07:18:48.392Z,82.25
2023-08-02T07:19:48.389Z,82.15
2023-08-02T07:20:48.390Z,82.65
2023-08-02T07:21:48.398Z,82.25
2023-08-02T07:22:48.414Z,82.15
2023-08-02T07:23:48.343Z,82.51
2023-08-02T07:24:48.334Z,82.15
2023-08-02T07:25:48.337Z,82.62
2023-08-02T07:26:48.340Z,82.21
2023-08-02T07:27:48.305Z,81.91
2023-08-02T07:28:48.317Z,82.07
2023-08-02T07:29:48.303Z,82.01
2023-08-02T07:30:48.304Z,82.51
2023-08-02T07:31:48.299Z,81.98
2023-08-02T07:32:48.279Z,82.28
2023-08-02T07:33:48.313Z,82.07
2023-08-02T07:34:48.232Z,82.28
2023-08-02T07:35:48.240Z,82.07
2023-08-02T07:36:48.374Z,82.62
2023-08-02T07:37:48.204Z,82.62
2023-08-02T07:38:48.195Z,83.93
2023-08-02T07:39:48.182Z,83.62
2023-08-02T07:40:48.213Z,83.56
2023-08-02T07:41:48.155Z,83.93
2023-08-02T07:42:48.154Z,84.07
2023-08-02T07:43:48.133Z,84.67
2023-08-02T07:44:48.130Z,84.37
2023-08-02T07:45:48.135Z,84.27
2023-08-02T07:46:48.160Z,85.28
2023-08-02T07:47:48.125Z,84.97
2023-08-02T07:48:48.100Z,84.77
2023-08-02T07:49:48.122Z,84.57
2023-08-02T07:50:48.091Z,84.97
2023-08-02T07:51:48.113Z,84.88
2023-08-02T07:52:48.052Z,84.97
2023-08-02T07:53:48.076Z,85.22
2023-08-02T07:54:55.963Z,85.38
2023-08-02T07:55:50.027Z,86.29
2023-08-02T07:56:48.007Z,86.58
2023-08-02T07:57:48.004Z,86.43
2023-08-02T07:58:47.994Z,86.63
2023-08-02T07:59:48.008Z,87.23
2023-08-02T08:00:47.972Z,87.43
2023-08-02T08:01:48.011Z,87.34
2023-08-02T08:02:48.007Z,86.93
2023-08-02T08:03:47.972Z,87.54
2023-08-02T08:04:47.956Z,87.54
2023-08-02T08:05:47.931Z,87.48
2023-08-02T08:06:47.943Z,87.38
2023-08-02T08:07:47.893Z,87.58
2023-08-02T08:08:47.912Z,87.88
2023-08-02T08:09:47.869Z,88.02
2023-08-02T08:10:47.867Z,88.59
2023-08-02T08:11:47.846Z,88.53
2023-08-02T08:12:47.881Z,88.63
2023-08-02T08:13:47.847Z,88.73
2023-08-02T08:14:47.825Z,89.59
2023-08-02T08:15:47.833Z,88.99
2023-08-02T08:16:47.851Z,88.73
2023-08-02T08:17:47.885Z,88.63
2023-08-02T08:18:49.048Z,88.32
2023-08-02T08:19:47.772Z,88.63
2023-08-02T08:20:47.764Z,88.59
2023-08-02T08:21:47.775Z,88.48
2023-08-02T08:22:47.761Z,88.48
2023-08-02T08:23:47.722Z,88.53
2023-08-02T08:24:47.743Z,88.79
2023-08-02T08:25:47.710Z,88.43
2023-08-02T08:26:47.704Z,88.68
2023-08-02T08:27:47.707Z,88.59
2023-08-02T08:28:47.680Z,88.59
2023-08-02T08:29:47.683Z,88.18
2023-08-02T08:30:47.660Z,88.04
2023-08-02T08:31:47.881Z,87.74
2023-08-02T08:32:47.683Z,87.74
2023-08-02T08:33:47.635Z,87.43
2023-08-02T08:34:47.631Z,87.54
2023-08-02T08:35:47.617Z,87.29
2023-08-02T08:36:47.632Z,86.99
2023-08-02T08:37:47.640Z,86.99
2023-08-02T08:38:50.202Z,86.75
2023-08-02T08:39:51.450Z,86.35
2023-08-02T08:40:48.588Z,86.41
2023-08-02T08:41:47.565Z,85.50
2023-08-02T08:42:47.534Z,84.80
2023-08-02T08:43:47.531Z,84.81
2023-08-02T08:44:47.529Z,84.55
2023-08-02T08:45:47.591Z,83.65
2023-08-02T08:46:47.501Z,83.61
2023-08-02T08:47:47.526Z,82.90
2023-08-02T08:48:47.471Z,82.80
2023-08-02T08:49:47.472Z,82.70
2023-08-02T08:50:47.491Z,82.50
2023-08-02T08:51:47.456Z,82.74
2023-08-02T08:52:47.451Z,83.00
2023-08-02T08:53:47.422Z,83.00
2023-08-02T08:54:47.438Z,81.90
2023-08-02T08:55:47.423Z,82.14
2023-08-02T08:56:47.397Z,82.44
2023-08-02T08:57:47.402Z,82.94
2023-08-02T08:58:47.379Z,83.11
2023-08-02T08:59:47.395Z,82.40
2023-08-02T09:00:47.387Z,82.80
2023-08-02T09:01:47.408Z,83.81
2023-08-02T09:02:47.406Z,83.61
2023-08-02T09:03:47.376Z,82.80
2023-08-02T09:04:47.660Z,82.76
2023-08-02T09:05:47.299Z,81.99
2023-08-02T09:06:47.385Z,82.60
2023-08-02T09:07:47.289Z,82.54
2023-08-02T09:08:47.289Z,82.30
2023-08-02T09:09:47.275Z,82.70
2023-08-02T09:10:47.242Z,82.94
2023-08-02T09:11:47.240Z,83.65
2023-08-02T09:12:47.636Z,83.54
2023-08-02T09:13:47.252Z,83.75
2023-08-02T09:14:47.207Z,84.19
2023-08-02T09:15:48.674Z,84.35
2023-08-02T09:16:47.190Z,84.29
2023-08-02T09:17:47.240Z,84.15
2023-08-02T09:18:47.176Z,83.65
2023-08-02T09:19:48.169Z,83.84
2023-08-02T09:20:47.158Z,83.95
2023-08-02T09:21:47.162Z,83.99
2023-08-02T09:22:47.152Z,83.95
2023-08-02T09:23:47.150Z,83.79
2023-08-02T09:24:47.114Z,83.95
2023-08-02T09:25:47.100Z,82.94
2023-08-02T09:26:47.090Z,83.84
2023-08-02T09:27:47.092Z,83.65
2023-08-02T09:28:47.068Z,83.04
2023-08-02T09:29:47.058Z,82.80
2023-08-02T09:30:47.063Z,82.06
2023-08-02T09:31:47.350Z,83.81
2023-08-02T09:32:47.171Z,82.50
2023-08-02T09:33:47.020Z,82.30
2023-08-02T09:34:47.011Z,82.50
2023-08-02T09:35:47.038Z,82.60
2023-08-02T09:36:48.002Z,82.06
2023-08-02T09:37:47.023Z,82.16
2023-08-02T09:38:46.959Z,82.62
2023-08-02T09:39:46.980Z,82.42
2023-08-02T09:41:26.312Z,82.97
2023-08-02T09:41:58.631Z,82.66
2023-08-02T09:42:48.932Z,82.90
2023-08-02T09:43:46.911Z,82.40
2023-08-02T09:44:46.922Z,83.20
2023-08-02T09:45:46.952Z,82.90
2023-08-02T09:46:46.930Z,83.40
2023-08-02T09:47:46.877Z,83.71
2023-08-02T09:48:46.863Z,83.67
2023-08-02T09:49:46.855Z,83.67
2023-08-02T09:50:46.865Z,84.01
2023-08-02T09:51:46.855Z,84.21
2023-08-02T09:52:46.823Z,84.11
2023-08-02T09:53:46.824Z,84.31
2023-08-02T09:54:46.817Z,84.75
2023-08-02T09:55:46.864Z,84.51
2023-08-02T09:56:46.785Z,84.75
2023-08-02T09:57:46.771Z,85.40
2023-08-02T09:58:46.778Z,85.66
2023-08-02T09:59:46.818Z,86.16
2023-08-02T10:00:46.753Z,85.25
2023-08-02T10:01:47.006Z,84.69
2023-08-02T10:02:46.751Z,85.30
2023-08-02T10:03:46.710Z,84.89
2023-08-02T10:04:46.774Z,84.15
2023-08-02T10:05:46.711Z,84.59
2023-08-02T10:06:46.734Z,84.89
2023-08-02T10:07:46.683Z,84.25
2023-08-02T10:08:46.695Z,84.29
2023-08-02T10:09:46.675Z,84.25
2023-08-02T10:10:46.665Z,84.25
2023-08-02T10:11:46.651Z,84.75
2023-08-02T10:12:46.619Z,83.99
2023-08-02T10:13:46.614Z,84.29
2023-08-02T10:14:46.617Z,84.19
2023-08-02T10:15:46.639Z,84.09
2023-08-02T10:16:46.581Z,84.39
2023-08-02T10:17:46.607Z,84.29
2023-08-02T10:18:46.588Z,83.99
2023-08-02T10:19:46.572Z,85.00
2023-08-02T10:20:46.545Z,84.39
2023-08-02T10:21:46.545Z,84.19
2023-08-02T10:22:46.521Z,84.29
2023-08-02T10:23:46.542Z,84.63
2023-08-02T10:24:46.513Z,84.63
2023-08-02T10:25:46.497Z,84.53
2023-08-02T10:26:46.548Z,84.83
2023-08-02T10:27:46.496Z,85.44
2023-08-02T10:28:46.508Z,84.80
2023-08-02T10:29:46.465Z,84.49
2023-08-02T10:30:46.466Z,84.29
2023-08-02T10:31:46.430Z,84.80
2023-08-02T10:32:46.521Z,84.19
2023-08-02T10:33:46.598Z,84.29
2023-08-02T10:34:46.439Z,84.19
2023-08-02T10:35:46.417Z,84.19
2023-08-02T10:36:46.380Z,84.63
2023-08-02T10:37:46.391Z,86.04
2023-08-02T10:38:46.360Z,85.64
2023-08-02T10:39:46.348Z,86.08
2023-08-02T10:40:46.345Z,86.95
2023-08-02T10:41:46.358Z,87.25
2023-08-02T10:42:46.350Z,86.65
2023-08-02T10:43:46.302Z,86.95
2023-08-02T10:44:46.298Z,87.15
2023-08-02T10:45:46.341Z,87.05
2023-08-02T10:46:46.656Z,86.35
2023-08-02T10:47:46.292Z,86.95
2023-08-02T10:48:47.258Z,87.51
2023-08-02T10:49:46.282Z,87.45
2023-08-02T10:50:46.242Z,87.31
2023-08-02T10:51:46.253Z,88.06
2023-08-02T10:52:46.218Z,88.36
2023-08-02T10:53:46.220Z,88.02
2023-08-02T10:54:46.198Z,88.06
2023-08-02T10:55:46.214Z,88.46
2023-08-02T10:56:46.193Z,88.36
2023-08-02T10:57:46.208Z,88.26
2023-08-02T10:58:46.157Z,89.47
2023-08-02T10:59:46.144Z,89.26
2023-08-02T11:00:47.175Z,89.26
2023-08-02T11:01:46.169Z,88.96
2023-08-02T11:02:46.166Z,89.06
2023-08-02T11:03:46.116Z,89.57
2023-08-02T11:04:46.127Z,90.17
2023-08-02T11:05:46.116Z,89.57
2023-08-02T11:06:46.523Z,90.42
2023-08-02T11:07:46.057Z,91.02
2023-08-02T11:08:46.071Z,90.32
2023-08-02T11:09:46.068Z,90.82
2023-08-02T11:10:46.049Z,90.62
2023-08-02T11:11:46.722Z,90.42
2023-08-02T11:12:46.009Z,90.62
2023-08-02T11:13:45.999Z,90.82
2023-08-02T11:14:47.271Z,91.47
2023-08-02T11:15:47.905Z,91.42
2023-08-02T11:17:54.657Z,91.06
2023-08-02T11:18:48.069Z,91.57
2023-08-02T11:20:05.786Z,91.37
2023-08-02T11:20:48.004Z,92.88
2023-08-02T11:21:45.915Z,91.67
2023-08-02T11:22:45.913Z,92.18
2023-08-02T11:24:46.920Z,91.67
2023-08-02T11:25:45.896Z,91.22
2023-08-02T11:28:46.873Z,91.08
2023-08-02T11:29:45.831Z,90.82
2023-08-02T11:30:46.879Z,90.42
2023-08-02T11:31:47.914Z,90.48
2023-08-02T11:32:46.922Z,90.92
2023-08-02T11:33:45.829Z,90.72
2023-08-02T11:34:45.786Z,90.42
2023-08-02T11:35:45.793Z,91.53
2023-08-02T11:36:48.043Z,90.82
2023-08-02T11:37:46.774Z,91.53
2023-08-02T11:38:45.762Z,91.53
2023-08-02T11:39:54.994Z,91.33
2023-08-02T11:40:47.735Z,91.33
2023-08-02T11:41:45.725Z,90.98
2023-08-02T11:42:45.744Z,90.52
2023-08-02T11:43:45.697Z,91.08
2023-08-02T11:44:49.630Z,91.28
2023-08-02T11:45:47.670Z,90.42
2023-08-02T11:46:45.931Z,90.68
2023-08-02T11:47:48.600Z,90.48
2023-08-02T11:48:46.671Z,90.33
2023-08-02T11:49:45.626Z,90.68
2023-08-02T11:50:45.676Z,90.68
2023-08-02T11:51:45.721Z,90.58
2023-08-02T11:52:45.639Z,90.37
2023-08-02T11:53:45.594Z,90.23
2023-08-02T11:54:45.592Z,90.94
2023-08-02T11:55:45.575Z,89.73
2023-08-02T11:56:46.216Z,89.83
2023-08-02T11:57:45.557Z,90.64
2023-08-02T11:58:45.541Z,90.44
2023-08-02T11:59:45.570Z,90.53
2023-08-02T12:00:45.526Z,90.03
2023-08-02T12:01:45.572Z,90.33
2023-08-02T12:02:45.533Z,90.44
2023-08-02T12:03:45.538Z,90.13
2023-08-02T12:04:45.504Z,90.33
2023-08-02T12:05:45.609Z,90.13
2023-08-02T12:06:45.735Z,90.33
2023-08-02T12:07:45.460Z,90.03
2023-08-02T12:08:45.436Z,90.64
2023-08-02T12:09:45.445Z,90.94
2023-08-02T12:10:45.513Z,90.73
2023-08-02T12:11:45.454Z,90.84
2023-08-02T12:12:45.406Z,90.44
2023-08-02T12:13:45.405Z,90.73
2023-08-02T12:14:45.407Z,90.33
2023-08-02T12:15:45.398Z,90.53
2023-08-02T12:16:45.741Z,90.73
2023-08-02T12:17:45.374Z,90.19
2023-08-02T12:18:45.344Z,90.39
2023-08-02T12:19:48.012Z,89.79
2023-08-02T12:20:46.356Z,89.48
2023-08-02T12:21:45.328Z,90.59
2023-08-02T12:22:45.302Z,90.09
2023-08-02T12:23:45.298Z,89.79
2023-08-02T12:24:45.363Z,89.28
2023-08-02T12:25:47.663Z,89.48
2023-08-02T12:26:46.476Z,89.34
2023-08-02T12:27:45.262Z,89.69
2023-08-02T12:28:45.248Z,89.75
2023-08-02T12:29:45.276Z,89.79
2023-08-02T12:30:45.299Z,89.54
2023-08-02T12:31:45.297Z,90.09
2023-08-02T12:32:45.214Z,90.95
2023-08-02T12:33:45.212Z,90.95
2023-08-02T12:34:47.396Z,89.24
2023-08-02T12:35:45.178Z,89.30
2023-08-02T12:36:45.445Z,89.70
2023-08-02T12:37:45.181Z,89.34
2023-08-02T12:38:45.165Z,89.95
2023-08-02T12:39:45.135Z,89.40
2023-08-02T12:40:45.147Z,89.20
2023-08-02T12:41:45.121Z,89.10
2023-08-02T12:42:53.293Z,88.65
2023-08-02T12:43:47.117Z,88.70
2023-08-02T12:44:45.087Z,88.75
2023-08-02T12:45:45.105Z,89.00
2023-08-02T12:46:45.318Z,88.90
2023-08-02T12:47:45.149Z,89.10
2023-08-02T12:48:45.067Z,89.50
2023-08-02T12:49:45.040Z,89.60
2023-08-02T12:50:45.033Z,88.90
2023-08-02T12:51:45.157Z,89.40
2023-08-02T12:52:45.042Z,89.50
2023-08-02T12:53:44.999Z,89.80
2023-08-02T12:54:45.000Z,88.79
2023-08-02T12:55:46.773Z,89.30
2023-08-02T12:56:45.211Z,89.00